Time;durP1;ratioP1;P1;durP2;ratioP2;P2;SDS_P1;SDS_P2;PMS_P1;PMS_P2;Temp;Humidity;BMP_temperature;BMP_pressure;BME280_temperature;BME280_humidity;BME280_pressure;Samples;Min_cycle;Max_cycle;Signal;HPM_P1;HPM_P2
2021/05/20 00:02:15;;;;;;;17.80;5.25;;;6.20;96.40;;;;;;5067432;28;20037;-67
2021/05/20 00:04:42;;;;;;;14.68;4.80;;;6.10;96.50;;;;;;5066810;28;20486;-67
2021/05/20 00:07:07;;;;;;;20.67;4.90;;;6.10;96.60;;;;;;5060484;28;20047;-67
2021/05/20 00:09:33;;;;;;;19.38;4.95;;;6.10;96.60;;;;;;5070935;28;20041;-67
2021/05/20 00:11:59;;;;;;;7.93;5.03;;;6.00;97.10;;;;;;5070828;28;20036;-67
2021/05/20 00:14:27;;;;;;;18.40;4.78;;;6.00;96.80;;;;;;5071442;28;20063;-67
2021/05/20 00:16:53;;;;;;;10.77;5.18;;;6.00;96.70;;;;;;5053810;28;20044;-67
2021/05/20 00:19:19;;;;;;;4.70;4.38;;;6.00;96.70;;;;;;5067797;28;20071;-67
2021/05/20 00:21:45;;;;;;;4.95;4.47;;;6.00;96.80;;;;;;5064727;28;20060;-67
2021/05/20 00:24:11;;;;;;;8.27;4.90;;;6.00;96.70;;;;;;5060942;28;20067;-67
2021/05/20 00:26:37;;;;;;;5.03;4.63;;;6.00;96.70;;;;;;5067130;28;20092;-67
2021/05/20 00:29:03;;;;;;;10.45;5.32;;;5.90;96.60;;;;;;5071019;28;20405;-67
2021/05/20 00:31:28;;;;;;;28.83;6.28;;;5.90;96.60;;;;;;5070451;28;20460;-67
2021/05/20 00:33:54;;;;;;;15.38;5.18;;;5.90;96.70;;;;;;5069167;28;20049;-67
2021/05/20 00:36:20;;;;;;;13.68;5.22;;;5.90;96.80;;;;;;5066771;28;20135;-67
2021/05/20 00:38:45;;;;;;;8.88;4.55;;;5.80;96.70;;;;;;5071699;28;20044;-67
2021/05/20 00:41:11;;;;;;;5.75;4.43;;;5.90;96.70;;;;;;5067222;28;20072;-67
2021/05/20 00:43:40;;;;;;;5.07;4.55;;;5.80;96.70;;;;;;5076836;28;20468;-67
2021/05/20 00:46:05;;;;;;;4.65;4.13;;;5.80;96.90;;;;;;5054371;28;20414;-67
2021/05/20 00:48:31;;;;;;;4.68;4.32;;;5.80;96.60;;;;;;5072487;28;20028;-67
2021/05/20 00:50:57;;;;;;;5.15;4.65;;;5.80;96.70;;;;;;5082990;28;20040;-67
2021/05/20 00:53:22;;;;;;;4.35;4.05;;;5.80;96.70;;;;;;5071564;28;20432;-67
2021/05/20 00:55:49;;;;;;;3.92;3.63;;;5.70;96.50;;;;;;5070369;28;20045;-67
2021/05/20 00:58:15;;;;;;;4.10;3.80;;;5.70;96.60;;;;;;5070542;28;20533;-67
2021/05/20 01:00:41;;;;;;;3.92;3.72;;;5.70;96.50;;;;;;5074952;28;20380;-67
2021/05/20 01:03:07;;;;;;;4.93;4.30;;;5.60;96.60;;;;;;5071243;28;20436;-67
2021/05/20 01:05:33;;;;;;;6.45;4.22;;;5.60;96.60;;;;;;5069130;28;20036;-67
2021/05/20 01:07:59;;;;;;;12.13;4.50;;;5.50;96.70;;;;;;5068884;28;20039;-67
2021/05/20 01:10:24;;;;;;;11.02;4.97;;;5.50;96.80;;;;;;5069355;28;20064;-67
2021/05/20 01:12:51;;;;;;;5.38;4.35;;;5.50;96.80;;;;;;5068984;28;20143;-67
2021/05/20 01:15:24;;;;;;;4.97;4.57;;;5.50;96.90;;;;;;5070209;28;20046;-67
2021/05/20 01:17:55;;;;;;;4.28;3.78;;;5.50;96.80;;;;;;5065603;28;20036;-67
2021/05/20 01:20:26;;;;;;;3.33;3.03;;;5.50;96.60;;;;;;5064700;28;20082;-67
2021/05/20 01:23:00;;;;;;;7.53;3.08;;;5.50;96.80;;;;;;5068223;28;20067;-67
2021/05/20 01:25:26;;;;;;;7.93;3.40;;;5.50;96.90;;;;;;5070224;28;20374;-67
2021/05/20 01:27:53;;;;;;;14.35;3.42;;;5.50;97.00;;;;;;5070106;28;20044;-67
2021/05/20 01:30:19;;;;;;;32.72;3.60;;;5.50;96.90;;;;;;5070383;28;20544;-67
2021/05/20 01:32:45;;;;;;;6.60;2.80;;;5.50;96.80;;;;;;5069771;28;20516;-67
2021/05/20 01:35:11;;;;;;;10.45;3.35;;;5.50;96.80;;;;;;5065898;28;20040;-67
2021/05/20 01:37:36;;;;;;;3.40;3.10;;;5.40;96.70;;;;;;5061256;28;20565;-67
2021/05/20 01:40:03;;;;;;;3.45;3.25;;;5.40;96.90;;;;;;5070125;28;20175;-67
2021/05/20 01:42:28;;;;;;;2.70;2.50;;;5.40;96.80;;;;;;5069417;28;20375;-66
2021/05/20 01:44:54;;;;;;;3.58;3.28;;;5.40;96.60;;;;;;5068372;28;20043;-66
2021/05/20 01:47:20;;;;;;;3.30;3.00;;;5.40;96.60;;;;;;5070269;28;20044;-66
2021/05/20 01:49:50;;;;;;;3.38;3.13;;;5.30;96.50;;;;;;5069971;28;20037;-66
2021/05/20 01:52:16;;;;;;;3.50;3.30;;;5.40;96.80;;;;;;5051552;28;20108;-67
2021/05/20 01:54:42;;;;;;;3.38;3.17;;;5.40;96.70;;;;;;5048604;28;20055;-66
2021/05/20 01:57:08;;;;;;;3.47;3.28;;;5.40;96.80;;;;;;5069688;28;20071;-67
2021/05/20 01:59:33;;;;;;;4.45;4.05;;;5.30;96.60;;;;;;5068421;28;20481;-67
2021/05/20 02:01:59;;;;;;;4.10;3.80;;;5.30;96.70;;;;;;5068110;28;20107;-67
2021/05/20 02:04:25;;;;;;;4.93;4.53;;;5.30;96.60;;;;;;5068708;28;20044;-67
2021/05/20 02:06:51;;;;;;;5.00;4.68;;;5.30;96.70;;;;;;5068377;28;20032;-67
2021/05/20 02:09:17;;;;;;;5.18;4.88;;;5.30;96.90;;;;;;5068284;28;20103;-67
2021/05/20 02:11:42;;;;;;;6.00;4.97;;;5.20;97.10;;;;;;5065724;28;20108;-67
2021/05/20 02:14:08;;;;;;;6.40;5.40;;;5.30;97.10;;;;;;5064051;28;20044;-67
2021/05/20 02:16:34;;;;;;;8.60;6.03;;;5.20;97.20;;;;;;5068487;28;20083;-67
2021/05/20 02:18:59;;;;;;;15.45;6.20;;;5.30;97.20;;;;;;5068604;28;20045;-67
2021/05/20 02:21:25;;;;;;;8.20;5.25;;;5.20;97.00;;;;;;5067196;28;20044;-66
2021/05/20 02:23:51;;;;;;;8.65;4.15;;;5.20;97.00;;;;;;5068889;28;20115;-66
2021/05/20 02:26:16;;;;;;;12.82;4.32;;;5.20;96.80;;;;;;5069066;28;20086;-66
2021/05/20 02:28:42;;;;;;;11.10;4.35;;;5.20;96.90;;;;;;5064477;28;20043;-66
2021/05/20 02:31:08;;;;;;;30.73;4.43;;;5.10;97.00;;;;;;5068356;28;20041;-66
2021/05/20 02:33:33;;;;;;;28.83;5.00;;;5.20;96.90;;;;;;5049956;28;20509;-66
2021/05/20 02:35:59;;;;;;;30.75;7.63;;;5.10;97.10;;;;;;5068589;28;20580;-66
2021/05/20 02:38:25;;;;;;;5.72;4.13;;;5.20;97.20;;;;;;5034265;28;20040;-66
2021/05/20 02:40:51;;;;;;;7.50;4.47;;;5.10;97.20;;;;;;5069074;28;20281;-66
2021/05/20 02:43:16;;;;;;;9.45;4.55;;;5.10;97.20;;;;;;5068892;28;20072;-66
2021/05/20 02:45:42;;;;;;;4.95;4.55;;;5.10;97.20;;;;;;5065254;28;20086;-66
2021/05/20 02:48:08;;;;;;;5.35;4.30;;;5.10;97.20;;;;;;5068719;28;20375;-66
2021/05/20 02:50:33;;;;;;;6.43;4.72;;;5.10;97.20;;;;;;5066671;28;20098;-66
2021/05/20 02:52:59;;;;;;;7.30;4.63;;;5.00;97.10;;;;;;5068117;28;20044;-66
2021/05/20 02:55:25;;;;;;;5.63;4.15;;;5.00;96.90;;;;;;5068704;28;20458;-66
2021/05/20 02:57:54;;;;;;;4.70;4.30;;;5.00;96.90;;;;;;5068005;28;20051;-66
2021/05/20 03:00:20;;;;;;;5.70;5.10;;;5.00;96.80;;;;;;5064680;28;20122;-66
2021/05/20 03:02:47;;;;;;;5.00;4.50;;;4.90;96.80;;;;;;5046031;28;20047;-66
2021/05/20 03:05:14;;;;;;;8.23;4.95;;;5.00;96.80;;;;;;5066389;28;20046;-66
2021/05/20 03:07:39;;;;;;;11.15;4.80;;;5.00;96.80;;;;;;5067969;28;20124;-66
2021/05/20 03:10:07;;;;;;;16.20;5.53;;;4.90;96.70;;;;;;5050212;28;20140;-67
2021/05/20 03:12:34;;;;;;;9.43;5.85;;;4.90;96.70;;;;;;5068527;28;20086;-67
2021/05/20 03:14:59;;;;;;;30.17;6.25;;;4.90;96.70;;;;;;5068864;28;20043;-67
2021/05/20 03:17:26;;;;;;;24.67;5.55;;;4.90;96.90;;;;;;5064460;28;20032;-67
2021/05/20 03:19:52;;;;;;;13.50;5.70;;;4.80;96.70;;;;;;5063902;28;20274;-67
2021/05/20 03:22:18;;;;;;;25.88;5.90;;;4.80;96.70;;;;;;5068384;28;20382;-67
2021/05/20 03:24:44;;;;;;;15.98;5.85;;;4.80;96.90;;;;;;5067652;28;20043;-67
2021/05/20 03:27:10;;;;;;;5.38;4.88;;;4.70;97.00;;;;;;5048748;28;20051;-67
2021/05/20 03:29:35;;;;;;;6.85;5.22;;;4.70;96.90;;;;;;5050887;28;20040;-67
2021/05/20 03:32:02;;;;;;;11.55;5.25;;;4.70;96.90;;;;;;5066785;28;20401;-66
2021/05/20 03:34:27;;;;;;;7.93;4.88;;;4.70;97.00;;;;;;5063400;28;20040;-66
2021/05/20 03:36:53;;;;;;;14.25;4.70;;;4.70;97.00;;;;;;5058884;28;20106;-67
2021/05/20 03:39:19;;;;;;;11.70;5.10;;;4.70;97.20;;;;;;5067013;28;20036;-67
2021/05/20 03:41:44;;;;;;;5.80;4.80;;;4.70;97.30;;;;;;5069852;28;20071;-67
2021/05/20 03:44:12;;;;;;;6.30;5.25;;;4.80;97.30;;;;;;5069836;28;20121;-66
2021/05/20 03:46:38;;;;;;;9.93;5.70;;;4.80;97.30;;;;;;5071896;28;20526;-67
2021/05/20 03:49:03;;;;;;;7.82;6.50;;;4.90;97.50;;;;;;5068807;28;20155;-67
2021/05/20 03:51:29;;;;;;;7.90;7.10;;;4.90;97.40;;;;;;5071319;28;20091;-67
2021/05/20 03:53:56;;;;;;;7.13;6.43;;;4.90;97.30;;;;;;5071069;28;20150;-67
2021/05/20 03:56:22;;;;;;;8.45;7.05;;;4.90;97.30;;;;;;5070092;28;20477;-67
2021/05/20 03:58:48;;;;;;;9.82;6.68;;;5.00;97.60;;;;;;5072107;28;20142;-66
2021/05/20 04:01:13;;;;;;;14.57;7.25;;;5.00;97.50;;;;;;5070676;28;20041;-67
2021/05/20 04:03:39;;;;;;;17.08;6.90;;;5.00;97.40;;;;;;5072078;28;20393;-68
2021/05/20 04:06:06;;;;;;;13.68;7.32;;;5.10;97.50;;;;;;5070307;28;20051;-68
2021/05/20 04:08:35;;;;;;;13.70;7.88;;;5.10;97.40;;;;;;5060204;22;20501;-67
2021/05/20 04:11:02;;;;;;;10.10;7.43;;;5.20;97.50;;;;;;5070466;28;20415;-67
2021/05/20 04:13:31;;;;;;;11.98;8.20;;;5.30;97.50;;;;;;5088074;28;20362;-68
2021/05/20 04:15:57;;;;;;;11.57;8.77;;;5.40;97.70;;;;;;5064661;28;20046;-68
2021/05/20 04:18:23;;;;;;;20.42;9.55;;;5.50;97.40;;;;;;5072641;28;20063;-68
2021/05/20 04:20:50;;;;;;;20.38;10.23;;;5.60;97.30;;;;;;5073466;28;20032;-68
2021/05/20 04:23:16;;;;;;;29.17;12.35;;;5.60;97.30;;;;;;5072170;28;20041;-68
2021/05/20 04:25:42;;;;;;;23.38;12.32;;;5.70;97.40;;;;;;5075634;28;20035;-68
2021/05/20 04:28:08;;;;;;;36.28;12.55;;;5.70;97.50;;;;;;5074110;28;20355;-68
2021/05/20 04:30:34;;;;;;;39.97;13.32;;;5.80;97.60;;;;;;5076256;28;20359;-67
2021/05/20 04:33:00;;;;;;;35.75;12.90;;;5.90;97.50;;;;;;5074855;28;20036;-68
2021/05/20 04:35:26;;;;;;;52.03;14.10;;;6.00;97.50;;;;;;5062327;28;20497;-68
2021/05/20 04:37:51;;;;;;;44.38;13.20;;;6.20;97.70;;;;;;5072634;28;20561;-67
2021/05/20 04:40:17;;;;;;;72.93;14.48;;;6.30;97.30;;;;;;5071180;28;20037;-69
2021/05/20 04:42:43;;;;;;;39.40;13.88;;;6.30;97.20;;;;;;5076643;28;20107;-68
2021/05/20 04:45:09;;;;;;;56.78;15.18;;;6.30;97.40;;;;;;5068707;28;20040;-68
2021/05/20 04:47:34;;;;;;;79.53;15.27;;;6.40;97.70;;;;;;5074985;28;20044;-68
2021/05/20 04:50:00;;;;;;;89.35;16.80;;;6.40;97.40;;;;;;5080101;28;20417;-68
2021/05/20 04:52:26;;;;;;;51.40;16.75;;;6.50;97.50;;;;;;5071247;28;20047;-68
2021/05/20 04:54:51;;;;;;;49.95;15.68;;;6.70;97.90;;;;;;5071730;28;20442;-68
2021/05/20 04:57:17;;;;;;;37.72;16.08;;;6.90;97.60;;;;;;5081884;28;20032;-68
2021/05/20 04:59:43;;;;;;;24.13;16.90;;;7.10;97.40;;;;;;5069400;28;20358;-68
2021/05/20 05:02:08;;;;;;;18.63;16.33;;;7.20;97.30;;;;;;5073845;28;20051;-68
2021/05/20 05:04:34;;;;;;;21.35;16.67;;;7.30;97.40;;;;;;5070938;28;20033;-68
2021/05/20 05:07:00;;;;;;;20.50;18.40;;;7.50;97.20;;;;;;5078472;28;20048;-68
2021/05/20 05:09:26;;;;;;;19.67;17.38;;;7.60;97.10;;;;;;5068396;28;20102;-67
2021/05/20 05:11:51;;;;;;;21.38;17.83;;;7.80;96.90;;;;;;5065383;28;20045;-67
2021/05/20 05:14:17;;;;;;;18.85;16.85;;;7.90;96.80;;;;;;5065573;28;20032;-67
2021/05/20 05:16:43;;;;;;;18.65;16.98;;;8.00;96.40;;;;;;5069118;28;20472;-67
2021/05/20 05:19:09;;;;;;;22.52;16.85;;;8.30;96.50;;;;;;5067893;28;20052;-68
2021/05/20 05:21:35;;;;;;;19.17;17.23;;;8.40;96.30;;;;;;5072535;28;20078;-68
2021/05/20 05:24:00;;;;;;;19.75;17.88;;;8.60;96.10;;;;;;5076472;28;20037;-68
2021/05/20 05:26:27;;;;;;;19.50;17.80;;;8.70;95.90;;;;;;5073835;28;20040;-68
2021/05/20 05:28:53;;;;;;;19.95;18.15;;;8.90;95.60;;;;;;5074005;28;20040;-68
2021/05/20 05:31:24;;;;;;;21.55;19.45;;;9.10;95.50;;;;;;5070645;28;20394;-68
2021/05/20 05:33:50;;;;;;;19.58;17.77;;;9.20;95.40;;;;;;5071815;28;20048;-68
2021/05/20 05:36:16;;;;;;;20.67;18.77;;;9.40;95.30;;;;;;5062361;28;20028;-66
2021/05/20 05:38:42;;;;;;;18.88;17.05;;;9.50;94.90;;;;;;5080736;28;20046;-66
2021/05/20 05:41:07;;;;;;;19.95;18.05;;;9.70;93.90;;;;;;5070417;28;20036;-66
2021/05/20 05:43:33;;;;;;;19.77;17.17;;;9.90;94.40;;;;;;5069937;28;20470;-66
2021/05/20 05:45:59;;;;;;;21.02;18.88;;;10.20;94.20;;;;;;5081657;28;20055;-66
2021/05/20 05:48:24;;;;;;;19.25;17.55;;;10.60;94.00;;;;;;5072156;28;20085;-66
2021/05/20 05:50:52;;;;;;;18.52;16.85;;;10.90;93.80;;;;;;5066716;28;20044;-66
2021/05/20 05:53:18;;;;;;;18.17;16.45;;;11.80;92.70;;;;;;5068487;28;20465;-67
2021/05/20 05:55:43;;;;;;;18.13;16.73;;;12.30;91.20;;;;;;5069522;28;20062;-66
2021/05/20 05:58:09;;;;;;;17.80;16.35;;;12.70;90.30;;;;;;5085705;28;20036;-66
2021/05/20 06:00:35;;;;;;;18.00;16.50;;;13.00;90.50;;;;;;5065826;28;20079;-66
2021/05/20 06:03:02;;;;;;;16.75;15.25;;;13.30;90.10;;;;;;5067431;28;20036;-67
2021/05/20 06:05:27;;;;;;;16.67;15.27;;;13.20;89.10;;;;;;5069924;28;20482;-66
2021/05/20 06:07:55;;;;;;;17.73;14.57;;;13.00;88.60;;;;;;5065314;28;20082;-66
2021/05/20 06:10:22;;;;;;;17.17;15.40;;;12.80;87.20;;;;;;5071493;28;20040;-66
2021/05/20 06:12:49;;;;;;;33.45;16.10;;;12.60;88.60;;;;;;5068199;28;20469;-67
2021/05/20 06:15:14;;;;;;;17.08;15.15;;;12.40;89.90;;;;;;5061792;28;20041;-67
2021/05/20 06:17:41;;;;;;;19.00;15.77;;;12.20;90.30;;;;;;5070164;28;20428;-67
2021/05/20 06:20:08;;;;;;;18.27;16.77;;;12.10;88.60;;;;;;5065687;28;20036;-67
2021/05/20 06:22:34;;;;;;;16.85;15.20;;;12.10;87.30;;;;;;5078657;28;20495;-67
2021/05/20 06:24:59;;;;;;;19.77;17.95;;;12.10;87.60;;;;;;5076600;28;20054;-67
2021/05/20 06:27:28;;;;;;;18.30;16.60;;;12.10;89.60;;;;;;5075897;28;20072;-68
2021/05/20 06:29:55;;;;;;;19.88;18.17;;;12.00;85.80;;;;;;5055886;28;20051;-68
2021/05/20 06:32:21;;;;;;;17.30;15.70;;;12.10;90.00;;;;;;5083188;28;20035;-66
2021/05/20 06:34:47;;;;;;;15.38;13.85;;;12.20;84.80;;;;;;5069855;28;20127;-66
2021/05/20 06:37:13;;;;;;;15.35;14.05;;;12.20;84.50;;;;;;5077400;28;20044;-68
2021/05/20 06:39:39;;;;;;;18.77;17.00;;;12.30;82.40;;;;;;5072395;28;20034;-67
2021/05/20 06:42:08;;;;;;;20.38;18.52;;;12.20;89.20;;;;;;5069050;28;20041;-66
2021/05/20 06:44:35;;;;;;;16.58;15.10;;;12.10;88.70;;;;;;5079941;28;20481;-67
2021/05/20 06:47:00;;;;;;;19.90;18.00;;;12.00;86.80;;;;;;5070341;28;20090;-66
2021/05/20 06:49:26;;;;;;;19.73;18.02;;;12.10;89.90;;;;;;5076533;28;20032;-66
2021/05/20 06:51:52;;;;;;;16.77;15.35;;;12.20;88.50;;;;;;5090520;28;20042;-67
2021/05/20 06:54:19;;;;;;;19.17;17.52;;;12.30;88.90;;;;;;5075447;28;20047;-66
2021/05/20 06:56:49;;;;;;;17.67;15.95;;;12.40;87.10;;;;;;5070072;28;20094;-66
2021/05/20 07:01:59;;;;;;;14.32;13.02;;;13.00;85.00;;;;;;5070215;28;20428;-67
2021/05/20 07:04:24;;;;;;;14.55;13.18;;;13.30;84.30;;;;;;5074209;28;20042;-68
2021/05/20 07:06:50;;;;;;;16.00;14.70;;;13.60;79.30;;;;;;5074560;28;20046;-68
2021/05/20 07:09:16;;;;;;;14.63;13.27;;;14.30;80.90;;;;;;5067081;28;20048;-68
2021/05/20 07:11:42;;;;;;;12.65;11.63;;;15.10;76.90;;;;;;5070008;28;20063;-68
2021/05/20 07:14:08;;;;;;;14.07;12.88;;;15.50;75.20;;;;;;5072643;28;20111;-67
2021/05/20 07:16:33;;;;;;;12.60;11.55;;;16.10;73.80;;;;;;5081232;28;20032;-67
2021/05/20 07:18:59;;;;;;;11.68;10.77;;;16.60;77.50;;;;;;5060258;28;20045;-68
2021/05/20 07:21:25;;;;;;;13.25;10.65;;;17.40;74.40;;;;;;5072493;28;20094;-68
2021/05/20 07:23:51;;;;;;;11.02;10.02;;;17.80;68.90;;;;;;5073154;28;20037;-68
2021/05/20 07:26:17;;;;;;;9.88;9.05;;;18.30;69.80;;;;;;5073670;28;20036;-68
2021/05/20 07:28:43;;;;;;;10.23;9.43;;;18.40;66.70;;;;;;5073103;28;20087;-66
2021/05/20 07:31:09;;;;;;;9.82;9.00;;;17.90;68.20;;;;;;5073593;28;20547;-67
2021/05/20 07:33:35;;;;;;;9.50;8.60;;;17.60;67.70;;;;;;5071509;28;20444;-67
2021/05/20 07:36:01;;;;;;;8.98;8.07;;;17.60;68.90;;;;;;5079765;28;20529;-66
2021/05/20 07:38:27;;;;;;;9.45;8.65;;;18.20;66.00;;;;;;5081767;28;20035;-68
2021/05/20 07:40:53;;;;;;;9.32;8.43;;;19.10;63.60;;;;;;5084534;28;20445;-66
2021/05/20 07:43:19;;;;;;;7.97;7.18;;;19.00;64.50;;;;;;5075167;28;20052;-67
2021/05/20 07:45:46;;;;;;;9.27;8.48;;;18.60;61.70;;;;;;5088210;28;20032;-66
2021/05/20 07:48:11;;;;;;;9.90;8.93;;;18.00;67.50;;;;;;5091437;28;20036;-66
2021/05/20 07:50:37;;;;;;;8.63;7.93;;;17.50;63.80;;;;;;5073103;28;20040;-67
2021/05/20 07:53:03;;;;;;;10.07;8.70;;;16.90;68.50;;;;;;5073350;28;20432;-67
2021/05/20 07:55:28;;;;;;;8.48;7.60;;;17.10;69.30;;;;;;5067655;28;20544;-67
2021/05/20 07:57:55;;;;;;;7.55;6.85;;;17.80;64.00;;;;;;5063481;28;20049;-68
2021/05/20 08:00:21;;;;;;;8.27;7.57;;;18.60;63.80;;;;;;5062819;28;20489;-67
2021/05/20 08:03:01;;;;;;;8.07;6.90;;;18.70;59.50;;;;;;5064547;28;20033;-67
2021/05/20 08:08:03;;;;;;;7.80;7.13;;;18.10;63.50;;;;;;5070883;28;20075;-67
2021/05/20 08:13:04;;;;;;;7.78;7.18;;;17.70;66.10;;;;;;5069176;28;20040;-67
2021/05/20 08:15:30;;;;;;;7.30;6.68;;;17.40;66.30;;;;;;5071700;28;20040;-67
2021/05/20 08:17:56;;;;;;;7.53;6.82;;;17.30;63.00;;;;;;5061705;28;20068;-70
2021/05/20 08:20:21;;;;;;;7.15;6.45;;;16.90;66.00;;;;;;5061739;28;20076;-70
2021/05/20 08:22:47;;;;;;;6.60;6.00;;;16.60;66.30;;;;;;5064072;28;20481;-71
2021/05/20 08:25:12;;;;;;;6.28;5.05;;;16.50;65.40;;;;;;5067537;28;20040;-70
2021/05/20 08:27:38;;;;;;;6.13;5.53;;;16.40;64.80;;;;;;5064231;28;20049;-71
2021/05/20 08:30:06;;;;;;;8.13;5.40;;;16.00;67.40;;;;;;5066215;28;20029;-70
2021/05/20 08:32:32;;;;;;;5.38;4.88;;;15.80;68.70;;;;;;5068726;28;20040;-71
2021/05/20 08:34:57;;;;;;;5.07;4.53;;;15.90;69.90;;;;;;5068995;28;20048;-70
2021/05/20 08:37:23;;;;;;;4.13;3.65;;;16.00;69.00;;;;;;5068963;28;20124;-70
2021/05/20 08:39:48;;;;;;;7.15;3.70;;;16.20;65.90;;;;;;5070790;28;20051;-70
2021/05/20 08:42:14;;;;;;;5.00;3.58;;;16.20;64.70;;;;;;5066827;28;20386;-71
2021/05/20 08:44:40;;;;;;;4.30;3.67;;;16.00;67.00;;;;;;5070020;28;20040;-70
2021/05/20 08:47:06;;;;;;;4.93;4.22;;;16.00;67.90;;;;;;5068935;28;20500;-70
2021/05/20 08:49:31;;;;;;;5.63;4.43;;;16.00;66.90;;;;;;5065888;28;20047;-71
2021/05/20 08:51:58;;;;;;;4.65;3.67;;;16.00;66.10;;;;;;5068896;28;20033;-71
2021/05/20 08:54:23;;;;;;;4.38;3.97;;;15.90;66.60;;;;;;5067950;28;20037;-71
2021/05/20 08:56:55;;;;;;;3.90;3.30;;;15.70;67.20;;;;;;5065075;28;20062;-70
2021/05/20 08:59:30;;;;;;;4.32;3.60;;;15.60;67.70;;;;;;5063514;28;20080;-72
2021/05/20 09:01:58;;;;;;;5.25;3.53;;;15.70;67.00;;;;;;5057234;28;20071;-72
2021/05/20 09:04:25;;;;;;;4.28;3.88;;;15.70;66.60;;;;;;5068689;28;20108;-72
2021/05/20 09:06:56;;;;;;;4.35;3.65;;;15.70;66.30;;;;;;5068102;28;20082;-72
2021/05/20 09:09:28;;;;;;;4.07;3.67;;;15.70;66.10;;;;;;5064257;28;20634;-71
2021/05/20 09:11:57;;;;;;;4.25;3.25;;;15.50;67.00;;;;;;5065436;28;20498;-72
2021/05/20 09:14:38;;;;;;;4.15;3.10;;;15.20;67.90;;;;;;5072958;28;20111;-72
2021/05/20 09:17:18;;;;;;;4.88;3.17;;;15.10;69.20;;;;;;5062951;28;20159;-71
2021/05/20 09:19:51;;;;;;;5.75;3.10;;;15.00;69.50;;;;;;5069457;28;20046;-71
2021/05/20 09:22:17;;;;;;;3.13;2.50;;;15.00;72.10;;;;;;5064188;28;20041;-72
2021/05/20 09:24:53;;;;;;;2.97;2.70;;;15.20;70.50;;;;;;5069364;28;20033;-71
2021/05/20 09:27:42;;;;;;;4.78;2.97;;;15.40;69.10;;;;;;5069117;28;20488;-72
2021/05/20 09:30:11;;;;;;;3.45;2.67;;;15.80;67.20;;;;;;5063433;28;20048;-71
2021/05/20 09:32:46;;;;;;;4.32;3.63;;;16.10;65.50;;;;;;5070040;28;20060;-71
2021/05/20 09:35:12;;;;;;;3.58;3.00;;;16.20;68.60;;;;;;5051883;28;20052;-71
2021/05/20 09:37:50;;;;;;;2.70;2.40;;;16.50;66.70;;;;;;5054953;28;20032;-72
2021/05/20 09:40:20;;;;;;;3.15;2.38;;;16.60;64.60;;;;;;5065788;28;20037;-71
2021/05/20 09:42:46;;;;;;;3.00;2.40;;;16.60;64.20;;;;;;5067461;28;20033;-72
2021/05/20 09:45:18;;;;;;;4.20;3.00;;;16.60;63.60;;;;;;5065296;28;20049;-70
2021/05/20 09:47:45;;;;;;;3.00;2.38;;;16.50;64.10;;;;;;5067750;28;20052;-70
2021/05/20 09:50:14;;;;;;;3.40;2.75;;;16.30;64.50;;;;;;5068716;28;20186;-69
2021/05/20 09:52:41;;;;;;;6.22;2.47;;;16.10;67.80;;;;;;5069719;28;20064;-71
2021/05/20 09:55:26;;;;;;;3.58;1.85;;;16.10;69.90;;;;;;5067086;28;20503;-70
2021/05/20 09:57:54;;;;;;;2.10;1.50;;;16.30;70.00;;;;;;5070216;28;20039;-70
2021/05/20 10:00:26;;;;;;;3.35;1.77;;;16.50;65.00;;;;;;5069873;28;20047;-70
2021/05/20 10:03:13;;;;;;;2.28;2.08;;;16.80;64.00;;;;;;5064773;28;20043;-70
2021/05/20 10:05:46;;;;;;;2.80;2.00;;;16.90;64.30;;;;;;5059833;28;20055;-70
2021/05/20 10:08:14;;;;;;;1.90;1.58;;;17.00;63.50;;;;;;5068914;28;20127;-70
2021/05/20 10:10:44;;;;;;;2.10;1.73;;;17.20;63.20;;;;;;5065669;28;20048;-70
2021/05/20 10:13:16;;;;;;;1.38;1.27;;;17.40;60.20;;;;;;5066712;28;20432;-70
2021/05/20 10:15:42;;;;;;;1.10;1.10;;;17.40;63.00;;;;;;5064623;28;20032;-70
2021/05/20 10:18:13;;;;;;;1.70;1.30;;;17.70;60.80;;;;;;5066481;28;20429;-70
2021/05/20 10:20:41;;;;;;;1.75;1.15;;;17.90;58.90;;;;;;5063615;28;20117;-70
2021/05/20 10:23:08;;;;;;;1.35;1.20;;;18.10;58.50;;;;;;5057653;28;20044;-70
2021/05/20 10:25:35;;;;;;;1.33;0.90;;;18.20;58.10;;;;;;5056001;28;20048;-70
2021/05/20 10:28:01;;;;;;;2.30;1.10;;;18.10;56.60;;;;;;5055509;28;20028;-70
2021/05/20 10:30:27;;;;;;;2.47;1.58;;;18.10;59.20;;;;;;5069945;28;20111;-70
2021/05/20 10:32:57;;;;;;;2.38;1.25;;;18.10;59.70;;;;;;5069874;28;20040;-70
2021/05/20 10:35:41;;;;;;;6.40;1.30;;;18.20;59.90;;;;;;5068111;28;20470;-70
2021/05/20 10:38:08;;;;;;;2.50;1.20;;;18.20;59.30;;;;;;5064417;28;20043;-70
2021/05/20 10:40:34;;;;;;;1.45;1.35;;;18.00;59.70;;;;;;5069094;28;20132;-71
2021/05/20 10:43:09;;;;;;;2.17;1.40;;;18.00;58.90;;;;;;5068684;28;20069;-70
2021/05/20 10:45:36;;;;;;;1.90;1.30;;;18.10;59.50;;;;;;5068912;28;20032;-70
2021/05/20 10:48:02;;;;;;;2.45;1.65;;;18.20;59.10;;;;;;5067922;28;20039;-70
2021/05/20 10:50:50;;;;;;;2.05;1.85;;;18.20;59.00;;;;;;5069721;28;20488;-70
2021/05/20 10:53:37;;;;;;;2.58;1.70;;;18.30;59.00;;;;;;5065638;28;20048;-71
2021/05/20 10:56:29;;;;;;;1.73;1.30;;;18.40;57.60;;;;;;5062791;28;20036;-71
2021/05/20 10:58:57;;;;;;;1.85;1.27;;;18.50;57.20;;;;;;5068442;28;20029;-71
2021/05/20 11:01:27;;;;;;;1.17;1.08;;;18.40;57.40;;;;;;5059244;28;20064;-72
2021/05/20 11:03:52;;;;;;;2.05;1.48;;;18.30;56.90;;;;;;5063794;28;20036;-72
2021/05/20 11:06:23;;;;;;;3.20;1.77;;;18.10;58.40;;;;;;5059882;28;20029;-72
2021/05/20 11:08:48;;;;;;;1.95;1.58;;;18.00;58.90;;;;;;5066003;28;20123;-72
2021/05/20 11:11:43;;;;;;;1.88;1.23;;;18.10;58.50;;;;;;5051223;28;20123;-72
2021/05/20 11:14:12;;;;;;;1.33;1.17;;;18.40;58.50;;;;;;5049838;28;20577;-72
2021/05/20 11:16:39;;;;;;;1.40;1.00;;;18.50;56.30;;;;;;5050310;28;20044;-71
2021/05/20 11:19:23;;;;;;;2.72;1.20;;;18.50;55.60;;;;;;5057386;28;20108;-71
2021/05/20 11:21:58;;;;;;;2.28;1.00;;;18.40;55.60;;;;;;5066940;28;20122;-71
2021/05/20 11:24:28;;;;;;;3.38;1.15;;;18.50;56.00;;;;;;5066264;28;20081;-71
2021/05/20 11:26:59;;;;;;;3.00;1.10;;;18.50;56.80;;;;;;5066449;28;20501;-71
2021/05/20 11:29:26;;;;;;;1.58;1.10;;;18.50;56.20;;;;;;5064289;28;20087;-71
2021/05/20 11:31:58;;;;;;;2.90;1.27;;;18.40;56.70;;;;;;5064749;28;20158;-71
2021/05/20 11:34:36;;;;;;;1.70;1.00;;;18.40;56.80;;;;;;5050301;28;20033;-71
2021/05/20 11:37:01;;;;;;;25.23;2.15;;;18.40;55.60;;;;;;5058924;28;20037;-72
2021/05/20 11:39:27;;;;;;;1.73;1.00;;;18.40;57.10;;;;;;5062187;28;20498;-72
2021/05/20 11:41:53;;;;;;;2.47;1.20;;;18.40;57.50;;;;;;5056935;28;20059;-72
2021/05/20 11:44:25;;;;;;;3.70;1.33;;;18.40;57.20;;;;;;5064229;28;20040;-72
2021/05/20 11:47:05;;;;;;;1.98;1.17;;;18.50;56.90;;;;;;5063548;28;20098;-72
2021/05/20 11:49:32;;;;;;;5.13;1.30;;;18.40;57.40;;;;;;5057083;28;20390;-72
2021/05/20 11:52:02;;;;;;;2.42;1.55;;;18.50;59.00;;;;;;5054446;28;20055;-72
2021/05/20 11:54:30;;;;;;;2.60;1.90;;;18.60;57.50;;;;;;5067503;28;20394;-72
2021/05/20 11:56:58;;;;;;;3.00;2.28;;;18.60;53.90;;;;;;5068266;28;20098;-71
2021/05/20 11:59:43;;;;;;;3.42;2.50;;;18.40;56.30;;;;;;5068072;28;20162;-71
2021/05/20 12:02:13;;;;;;;5.00;2.85;;;18.20;55.40;;;;;;5059905;28;20096;-71
2021/05/20 12:04:39;;;;;;;5.40;4.30;;;18.00;58.10;;;;;;5072682;28;20037;-71
2021/05/20 12:07:05;;;;;;;5.57;4.75;;;17.80;57.80;;;;;;5058428;28;20037;-71
2021/05/20 12:09:32;;;;;;;6.25;5.65;;;17.60;57.20;;;;;;5068145;28;20082;-71
2021/05/20 12:12:07;;;;;;;7.53;6.47;;;17.90;57.90;;;;;;5057213;28;20455;-71
2021/05/20 12:14:34;;;;;;;8.23;7.53;;;18.10;57.30;;;;;;5060732;28;20044;-71
2021/05/20 12:17:07;;;;;;;8.75;7.88;;;18.20;58.80;;;;;;5073461;28;20045;-72
2021/05/20 12:19:35;;;;;;;8.18;7.32;;;18.50;59.90;;;;;;5068380;28;20133;-72
2021/05/20 12:22:13;;;;;;;7.90;7.18;;;18.70;57.40;;;;;;5065187;28;20082;-73
2021/05/20 12:24:42;;;;;;;8.02;6.38;;;18.70;56.00;;;;;;5063746;28;20036;-72
2021/05/20 12:27:26;;;;;;;8.05;6.70;;;18.70;57.60;;;;;;5068991;28;20127;-72
2021/05/20 12:29:57;;;;;;;7.15;6.45;;;18.40;57.50;;;;;;5067572;28;20039;-72
2021/05/20 12:32:51;;;;;;;6.87;6.17;;;18.30;58.80;;;;;;5063848;28;20454;-72
2021/05/20 12:35:31;;;;;;;9.05;4.80;;;18.40;56.30;;;;;;5043731;28;20808;-73
2021/05/20 12:38:20;;;;;;;5.90;4.30;;;18.50;54.60;;;;;;5060185;28;20037;-73
2021/05/20 12:40:53;;;;;;;5.80;4.43;;;18.80;55.40;;;;;;5054339;28;20033;-72
2021/05/20 12:43:38;;;;;;;5.45;4.38;;;18.90;56.80;;;;;;5061953;28;20458;-72
2021/05/20 12:46:12;;;;;;;7.45;4.70;;;19.10;56.60;;;;;;5063907;28;20279;-72
2021/05/20 12:48:43;;;;;;;5.00;4.13;;;19.10;54.80;;;;;;5069947;28;20028;-72
2021/05/20 12:51:18;;;;;;;4.65;3.58;;;19.20;55.30;;;;;;5070380;28;20037;-72
2021/05/20 12:53:53;;;;;;;6.28;4.32;;;19.40;56.30;;;;;;5069325;28;20047;-72
2021/05/20 12:56:25;;;;;;;3.50;3.20;;;19.30;50.70;;;;;;5070124;28;20064;-72
2021/05/20 12:59:14;;;;;;;6.45;3.47;;;19.40;49.90;;;;;;5064745;28;20086;-72